sensor_id;sensor_type;location;lat;lon;timestamp;temperature;humidity
17986;DHT22;9118;48.122;11.546;2023-08-31T00:00:42;15.00;99.90
17986;DHT22;9118;48.122;11.546;2023-08-31T00:03:09;15.00;99.90
17986;DHT22;9118;48.122;11.546;2023-08-31T00:05:37;15.00;99.90
17986;DHT22;9118;48.122;11.546;2023-08-31T00:08:06;14.90;99.90
17986;DHT22;9118;48.122;11.546;2023-08-31T00:10:33;14.90;99.90
17986;DHT22;9118;48.122;11.546;2023-08-31T00:13:00;14.90;99.90
17986;DHT22;9118;48.122;11.546;2023-08-31T00:15:27;14.80;99.90
17986;DHT22;9118;48.122;11.546;2023-08-31T00:17:59;14.80;99.90
17986;DHT22;9118;48.122;11.546;2023-08-31T00:20:26;14.80;99.90
17986;DHT22;9118;48.122;11.546;2023-08-31T00:22:55;14.80;99.90
17986;DHT22;9118;48.122;11.546;2023-08-31T00:25:22;14.80;99.90
17986;DHT22;9118;48.122;11.546;2023-08-31T00:27:49;14.80;99.90
17986;DHT22;9118;48.122;11.546;2023-08-31T00:30:18;14.80;99.90
17986;DHT22;9118;48.122;11.546;2023-08-31T00:32:45;14.70;99.90
17986;DHT22;9118;48.122;11.546;2023-08-31T00:35:14;14.70;99.90
17986;DHT22;9118;48.122;11.546;2023-08-31T00:37:41;14.70;99.90
17986;DHT22;9118;48.122;11.546;2023-08-31T00:40:09;14.60;99.90
17986;DHT22;9118;48.122;11.546;2023-08-31T00:42:39;14.60;99.90
17986;DHT22;9118;48.122;11.546;2023-08-31T00:45:07;14.60;99.90
17986;DHT22;9118;48.122;11.546;2023-08-31T00:47:34;14.60;99.90
17986;DHT22;9118;48.122;11.546;2023-08-31T00:50:02;14.60;99.90
17986;DHT22;9118;48.122;11.546;2023-08-31T00:52:31;14.60;99.90
17986;DHT22;9118;48.122;11.546;2023-08-31T00:54:58;14.60;99.90
17986;DHT22;9118;48.122;11.546;2023-08-31T00:57:27;14.60;99.90
17986;DHT22;9118;48.122;11.546;2023-08-31T00:59:53;14.50;99.90
17986;DHT22;9118;48.122;11.546;2023-08-31T01:02:30;14.50;99.90
17986;DHT22;9118;48.122;11.546;2023-08-31T01:05:07;14.50;99.90
17986;DHT22;9118;48.122;11.546;2023-08-31T01:07:44;14.50;99.90
17986;DHT22;9118;48.122;11.546;2023-08-31T01:10:18;14.50;99.90
17986;DHT22;9118;48.122;11.546;2023-08-31T01:12:52;14.50;99.90
17986;DHT22;9118;48.122;11.546;2023-08-31T01:15:21;14.40;99.90
17986;DHT22;9118;48.122;11.546;2023-08-31T01:17:50;14.50;99.90
17986;DHT22;9118;48.122;11.546;2023-08-31T01:20:28;14.40;99.90
17986;DHT22;9118;48.122;11.546;2023-08-31T01:23:02;14.40;99.90
17986;DHT22;9118;48.122;11.546;2023-08-31T01:25:31;14.40;99.90
17986;DHT22;9118;48.122;11.546;2023-08-31T01:27:59;14.40;99.90
17986;DHT22;9118;48.122;11.546;2023-08-31T01:30:29;14.40;99.90
17986;DHT22;9118;48.122;11.546;2023-08-31T01:32:57;14.40;99.90
17986;DHT22;9118;48.122;11.546;2023-08-31T01:35:26;14.40;99.90
17986;DHT22;9118;48.122;11.546;2023-08-31T01:37:58;14.50;99.90
17986;DHT22;9118;48.122;11.546;2023-08-31T01:40:31;14.50;99.90
17986;DHT22;9118;48.122;11.546;2023-08-31T01:43:01;14.50;99.90
17986;DHT22;9118;48.122;11.546;2023-08-31T01:45:29;14.60;99.90
17986;DHT22;9118;48.122;11.546;2023-08-31T01:47:57;14.60;99.90
17986;DHT22;9118;48.122;11.546;2023-08-31T01:50:24;14.60;99.90
17986;DHT22;9118;48.122;11.546;2023-08-31T01:52:51;14.60;99.90
17986;DHT22;9118;48.122;11.546;2023-08-31T01:55:19;14.70;99.90
17986;DHT22;9118;48.122;11.546;2023-08-31T01:57:49;14.70;99.90
17986;DHT22;9118;48.122;11.546;2023-08-31T02:00:17;14.70;99.90
17986;DHT22;9118;48.122;11.546;2023-08-31T02:02:44;14.70;99.90
17986;DHT22;9118;48.122;11.546;2023-08-31T02:05:11;14.70;99.90
17986;DHT22;9118;48.122;11.546;2023-08-31T02:07:38;14.70;99.90
17986;DHT22;9118;48.122;11.546;2023-08-31T02:10:06;14.70;99.90
17986;DHT22;9118;48.122;11.546;2023-08-31T02:12:33;14.70;99.90
17986;DHT22;9118;48.122;11.546;2023-08-31T02:15:04;14.70;99.90
17986;DHT22;9118;48.122;11.546;2023-08-31T02:17:31;14.80;99.90
17986;DHT22;9118;48.122;11.546;2023-08-31T02:19:58;14.80;99.90
17986;DHT22;9118;48.122;11.546;2023-08-31T02:22:26;14.80;99.90
17986;DHT22;9118;48.122;11.546;2023-08-31T02:24:53;14.70;99.90
17986;DHT22;9118;48.122;11.546;2023-08-31T02:27:19;14.70;99.90
17986;DHT22;9118;48.122;11.546;2023-08-31T02:29:47;14.70;99.90
17986;DHT22;9118;48.122;11.546;2023-08-31T02:32:15;14.70;99.90
17986;DHT22;9118;48.122;11.546;2023-08-31T02:34:42;14.50;99.90
17986;DHT22;9118;48.122;11.546;2023-08-31T02:37:09;14.40;99.90
17986;DHT22;9118;48.122;11.546;2023-08-31T02:39:36;14.10;99.90
17986;DHT22;9118;48.122;11.546;2023-08-31T02:42:03;14.00;99.90
17986;DHT22;9118;48.122;11.546;2023-08-31T02:44:30;13.80;99.90
17986;DHT22;9118;48.122;11.546;2023-08-31T02:46:57;13.70;99.90
17986;DHT22;9118;48.122;11.546;2023-08-31T02:49:26;13.60;99.90
17986;DHT22;9118;48.122;11.546;2023-08-31T02:51:53;13.60;99.90
17986;DHT22;9118;48.122;11.546;2023-08-31T02:54:20;13.60;99.90
17986;DHT22;9118;48.122;11.546;2023-08-31T02:56:47;13.70;99.90
17986;DHT22;9118;48.122;11.546;2023-08-31T02:59:14;13.60;99.90
17986;DHT22;9118;48.122;11.546;2023-08-31T03:01:42;13.60;99.90
17986;DHT22;9118;48.122;11.546;2023-08-31T03:04:12;13.60;99.90
17986;DHT22;9118;48.122;11.546;2023-08-31T03:06:40;13.70;99.90
17986;DHT22;9118;48.122;11.546;2023-08-31T03:09:07;13.80;99.90
17986;DHT22;9118;48.122;11.546;2023-08-31T03:11:35;13.90;99.90
17986;DHT22;9118;48.122;11.546;2023-08-31T03:14:02;14.00;99.90
17986;DHT22;9118;48.122;11.546;2023-08-31T03:16:29;14.00;99.90
17986;DHT22;9118;48.122;11.546;2023-08-31T03:18:56;14.00;99.90
17986;DHT22;9118;48.122;11.546;2023-08-31T03:21:23;14.10;99.90
17986;DHT22;9118;48.122;11.546;2023-08-31T03:23:51;14.10;99.90
17986;DHT22;9118;48.122;11.546;2023-08-31T03:26:18;14.20;99.90
17986;DHT22;9118;48.122;11.546;2023-08-31T03:28:45;14.20;99.90
17986;DHT22;9118;48.122;11.546;2023-08-31T03:31:12;14.20;99.90
17986;DHT22;9118;48.122;11.546;2023-08-31T03:33:39;14.20;99.90
17986;DHT22;9118;48.122;11.546;2023-08-31T03:36:06;14.20;99.90
17986;DHT22;9118;48.122;11.546;2023-08-31T03:38:33;14.20;99.90
17986;DHT22;9118;48.122;11.546;2023-08-31T03:41:05;14.20;99.90
17986;DHT22;9118;48.122;11.546;2023-08-31T03:43:32;14.20;99.90
17986;DHT22;9118;48.122;11.546;2023-08-31T03:45:59;14.20;99.90
17986;DHT22;9118;48.122;11.546;2023-08-31T03:48:26;14.20;99.90
17986;DHT22;9118;48.122;11.546;2023-08-31T03:50:55;14.30;99.90
17986;DHT22;9118;48.122;11.546;2023-08-31T03:53:22;14.30;99.90
17986;DHT22;9118;48.122;11.546;2023-08-31T03:55:49;14.30;99.90
17986;DHT22;9118;48.122;11.546;2023-08-31T03:58:18;14.30;99.90
17986;DHT22;9118;48.122;11.546;2023-08-31T04:00:45;14.30;99.90
17986;DHT22;9118;48.122;11.546;2023-08-31T04:03:16;14.20;99.90
17986;DHT22;9118;48.122;11.546;2023-08-31T04:05:43;14.20;99.90
17986;DHT22;9118;48.122;11.546;2023-08-31T04:08:11;14.00;99.90
17986;DHT22;9118;48.122;11.546;2023-08-31T04:10:38;14.10;99.90
17986;DHT22;9118;48.122;11.546;2023-08-31T04:13:05;14.10;99.90
17986;DHT22;9118;48.122;11.546;2023-08-31T04:15:36;14.10;99.90
17986;DHT22;9118;48.122;11.546;2023-08-31T04:18:03;14.10;99.90
17986;DHT22;9118;48.122;11.546;2023-08-31T04:20:32;14.10;99.90
17986;DHT22;9118;48.122;11.546;2023-08-31T04:22:59;14.20;99.90
17986;DHT22;9118;48.122;11.546;2023-08-31T04:25:28;14.20;99.90
17986;DHT22;9118;48.122;11.546;2023-08-31T04:27:56;14.20;99.90
17986;DHT22;9118;48.122;11.546;2023-08-31T04:30:23;14.20;99.90
17986;DHT22;9118;48.122;11.546;2023-08-31T04:32:51;14.20;99.90
17986;DHT22;9118;48.122;11.546;2023-08-31T04:35:18;14.20;99.90
17986;DHT22;9118;48.122;11.546;2023-08-31T04:37:45;14.10;99.90
17986;DHT22;9118;48.122;11.546;2023-08-31T04:40:13;14.10;99.90
17986;DHT22;9118;48.122;11.546;2023-08-31T04:42:40;14.10;99.90
17986;DHT22;9118;48.122;11.546;2023-08-31T04:45:07;14.10;99.90
17986;DHT22;9118;48.122;11.546;2023-08-31T04:47:36;14.10;99.90
17986;DHT22;9118;48.122;11.546;2023-08-31T04:50:05;14.10;99.90
17986;DHT22;9118;48.122;11.546;2023-08-31T04:52:32;14.10;99.90
17986;DHT22;9118;48.122;11.546;2023-08-31T04:55:01;14.10;99.90
17986;DHT22;9118;48.122;11.546;2023-08-31T04:57:29;14.10;99.90
17986;DHT22;9118;48.122;11.546;2023-08-31T04:59:56;14.20;99.90
17986;DHT22;9118;48.122;11.546;2023-08-31T05:02:23;14.20;99.90
17986;DHT22;9118;48.122;11.546;2023-08-31T05:04:50;14.20;99.90
17986;DHT22;9118;48.122;11.546;2023-08-31T05:07:18;14.20;99.90
17986;DHT22;9118;48.122;11.546;2023-08-31T05:09:45;14.20;99.90
17986;DHT22;9118;48.122;11.546;2023-08-31T05:12:12;14.30;99.90
17986;DHT22;9118;48.122;11.546;2023-08-31T05:14:39;14.30;99.90
17986;DHT22;9118;48.122;11.546;2023-08-31T05:17:06;14.30;99.90
17986;DHT22;9118;48.122;11.546;2023-08-31T05:19:33;14.30;99.90
17986;DHT22;9118;48.122;11.546;2023-08-31T05:22:00;14.30;99.90
17986;DHT22;9118;48.122;11.546;2023-08-31T05:24:29;14.30;99.90
17986;DHT22;9118;48.122;11.546;2023-08-31T05:26:55;14.30;99.90
17986;DHT22;9118;48.122;11.546;2023-08-31T05:29:22;14.30;99.90
17986;DHT22;9118;48.122;11.546;2023-08-31T05:31:51;14.30;99.90
17986;DHT22;9118;48.122;11.546;2023-08-31T05:34:21;14.30;99.90
17986;DHT22;9118;48.122;11.546;2023-08-31T05:36:48;14.30;99.90
17986;DHT22;9118;48.122;11.546;2023-08-31T05:39:15;14.30;99.90
17986;DHT22;9118;48.122;11.546;2023-08-31T05:41:44;14.40;99.90
17986;DHT22;9118;48.122;11.546;2023-08-31T05:44:10;14.40;99.90
17986;DHT22;9118;48.122;11.546;2023-08-31T05:46:37;14.50;99.90
17986;DHT22;9118;48.122;11.546;2023-08-31T05:49:08;14.50;99.90
17986;DHT22;9118;48.122;11.546;2023-08-31T05:51:35;14.60;99.90
17986;DHT22;9118;48.122;11.546;2023-08-31T05:54:02;14.60;99.90
17986;DHT22;9118;48.122;11.546;2023-08-31T05:56:29;14.60;99.90
17986;DHT22;9118;48.122;11.546;2023-08-31T05:58:58;14.60;99.90
17986;DHT22;9118;48.122;11.546;2023-08-31T06:01:24;14.70;99.90
17986;DHT22;9118;48.122;11.546;2023-08-31T06:03:51;14.70;99.90
17986;DHT22;9118;48.122;11.546;2023-08-31T06:06:19;14.70;99.90
17986;DHT22;9118;48.122;11.546;2023-08-31T06:08:46;14.80;99.90
17986;DHT22;9118;48.122;11.546;2023-08-31T06:11:13;14.80;99.90
17986;DHT22;9118;48.122;11.546;2023-08-31T06:13:40;14.90;99.90
17986;DHT22;9118;48.122;11.546;2023-08-31T06:16:09;15.00;99.90
17986;DHT22;9118;48.122;11.546;2023-08-31T06:18:36;15.00;99.90
17986;DHT22;9118;48.122;11.546;2023-08-31T06:21:03;15.10;99.90
17986;DHT22;9118;48.122;11.546;2023-08-31T06:23:30;15.10;99.90
17986;DHT22;9118;48.122;11.546;2023-08-31T06:25:57;15.10;99.90
17986;DHT22;9118;48.122;11.546;2023-08-31T06:28:26;15.10;99.90
17986;DHT22;9118;48.122;11.546;2023-08-31T06:30:59;15.10;99.90
17986;DHT22;9118;48.122;11.546;2023-08-31T06:33:41;15.20;99.90
17986;DHT22;9118;48.122;11.546;2023-08-31T06:36:08;15.20;99.90
17986;DHT22;9118;48.122;11.546;2023-08-31T06:38:36;15.30;99.90
17986;DHT22;9118;48.122;11.546;2023-08-31T06:41:03;15.30;99.90
17986;DHT22;9118;48.122;11.546;2023-08-31T06:43:30;15.40;99.90
17986;DHT22;9118;48.122;11.546;2023-08-31T06:45:57;15.30;99.90
17986;DHT22;9118;48.122;11.546;2023-08-31T06:48:24;15.30;99.90
17986;DHT22;9118;48.122;11.546;2023-08-31T06:50:52;15.40;99.90
17986;DHT22;9118;48.122;11.546;2023-08-31T06:53:19;15.40;99.90
17986;DHT22;9118;48.122;11.546;2023-08-31T06:55:47;15.30;99.90
17986;DHT22;9118;48.122;11.546;2023-08-31T06:58:13;15.30;99.90
17986;DHT22;9118;48.122;11.546;2023-08-31T07:00:40;15.30;99.90
17986;DHT22;9118;48.122;11.546;2023-08-31T07:03:08;15.40;99.90
17986;DHT22;9118;48.122;11.546;2023-08-31T07:05:36;15.50;99.90
17986;DHT22;9118;48.122;11.546;2023-08-31T07:08:09;15.50;99.90
17986;DHT22;9118;48.122;11.546;2023-08-31T07:10:36;15.50;99.90
17986;DHT22;9118;48.122;11.546;2023-08-31T07:13:04;15.60;99.90
17986;DHT22;9118;48.122;11.546;2023-08-31T07:15:31;15.60;99.90
17986;DHT22;9118;48.122;11.546;2023-08-31T07:17:58;15.70;99.90
17986;DHT22;9118;48.122;11.546;2023-08-31T07:20:25;15.70;99.90
17986;DHT22;9118;48.122;11.546;2023-08-31T07:22:52;15.80;99.90
17986;DHT22;9118;48.122;11.546;2023-08-31T07:25:21;15.90;99.90
17986;DHT22;9118;48.122;11.546;2023-08-31T07:27:48;15.90;99.90
17986;DHT22;9118;48.122;11.546;2023-08-31T07:30:15;15.90;99.90
17986;DHT22;9118;48.122;11.546;2023-08-31T07:32:42;16.00;99.90
17986;DHT22;9118;48.122;11.546;2023-08-31T07:35:09;16.10;99.90
17986;DHT22;9118;48.122;11.546;2023-08-31T07:37:36;16.00;99.90
17986;DHT22;9118;48.122;11.546;2023-08-31T07:40:04;15.70;99.90
17986;DHT22;9118;48.122;11.546;2023-08-31T07:42:36;15.70;99.90
17986;DHT22;9118;48.122;11.546;2023-08-31T07:45:03;15.70;99.90
17986;DHT22;9118;48.122;11.546;2023-08-31T07:47:31;15.80;99.90
17986;DHT22;9118;48.122;11.546;2023-08-31T07:49:58;15.90;99.90
17986;DHT22;9118;48.122;11.546;2023-08-31T07:52:25;16.00;99.90
17986;DHT22;9118;48.122;11.546;2023-08-31T07:54:52;16.00;99.90
17986;DHT22;9118;48.122;11.546;2023-08-31T07:57:19;16.10;99.90
17986;DHT22;9118;48.122;11.546;2023-08-31T07:59:48;16.20;99.90
17986;DHT22;9118;48.122;11.546;2023-08-31T08:02:14;16.30;99.90
17986;DHT22;9118;48.122;11.546;2023-08-31T08:04:42;16.30;99.90
17986;DHT22;9118;48.122;11.546;2023-08-31T08:07:09;16.50;99.90
17986;DHT22;9118;48.122;11.546;2023-08-31T08:09:36;16.60;99.90
17986;DHT22;9118;48.122;11.546;2023-08-31T08:12:03;16.60;99.90
17986;DHT22;9118;48.122;11.546;2023-08-31T08:14:30;16.70;99.90
17986;DHT22;9118;48.122;11.546;2023-08-31T08:17:01;16.80;99.90
17986;DHT22;9118;48.122;11.546;2023-08-31T08:19:28;16.90;99.90
17986;DHT22;9118;48.122;11.546;2023-08-31T08:21:55;17.00;99.90
17986;DHT22;9118;48.122;11.546;2023-08-31T08:24:22;17.10;99.90
17986;DHT22;9118;48.122;11.546;2023-08-31T08:26:49;17.10;99.90
17986;DHT22;9118;48.122;11.546;2023-08-31T08:29:16;16.90;99.90
17986;DHT22;9118;48.122;11.546;2023-08-31T08:31:43;16.80;99.90
17986;DHT22;9118;48.122;11.546;2023-08-31T08:34:11;16.70;99.90
17986;DHT22;9118;48.122;11.546;2023-08-31T08:36:38;16.70;99.90
17986;DHT22;9118;48.122;11.546;2023-08-31T08:39:05;16.70;99.90
17986;DHT22;9118;48.122;11.546;2023-08-31T08:41:33;16.70;99.90
17986;DHT22;9118;48.122;11.546;2023-08-31T08:44:03;16.80;99.90
17986;DHT22;9118;48.122;11.546;2023-08-31T08:46:31;16.80;99.90
17986;DHT22;9118;48.122;11.546;2023-08-31T08:49:00;16.90;99.90
17986;DHT22;9118;48.122;11.546;2023-08-31T08:51:30;17.00;99.90
17986;DHT22;9118;48.122;11.546;2023-08-31T08:53:59;17.00;99.90
17986;DHT22;9118;48.122;11.546;2023-08-31T08:56:26;17.10;99.90
17986;DHT22;9118;48.122;11.546;2023-08-31T08:58:53;17.40;99.90
17986;DHT22;9118;48.122;11.546;2023-08-31T09:01:21;17.50;99.90
17986;DHT22;9118;48.122;11.546;2023-08-31T09:03:49;17.80;99.90
17986;DHT22;9118;48.122;11.546;2023-08-31T09:06:16;17.80;99.90
17986;DHT22;9118;48.122;11.546;2023-08-31T09:08:44;17.70;99.90
17986;DHT22;9118;48.122;11.546;2023-08-31T09:11:20;17.50;99.90
17986;DHT22;9118;48.122;11.546;2023-08-31T09:13:48;17.20;99.90
17986;DHT22;9118;48.122;11.546;2023-08-31T09:16:24;17.10;99.90
17986;DHT22;9118;48.122;11.546;2023-08-31T09:18:51;17.00;99.90
17986;DHT22;9118;48.122;11.546;2023-08-31T09:21:19;16.90;99.90
17986;DHT22;9118;48.122;11.546;2023-08-31T09:23:55;16.90;99.90
17986;DHT22;9118;48.122;11.546;2023-08-31T09:26:23;16.60;99.90
17986;DHT22;9118;48.122;11.546;2023-08-31T09:28:50;16.60;99.90
17986;DHT22;9118;48.122;11.546;2023-08-31T09:31:17;16.60;99.90
17986;DHT22;9118;48.122;11.546;2023-08-31T09:33:50;16.50;99.90
17986;DHT22;9118;48.122;11.546;2023-08-31T09:36:17;16.80;99.90
17986;DHT22;9118;48.122;11.546;2023-08-31T09:38:45;17.00;99.90
17986;DHT22;9118;48.122;11.546;2023-08-31T09:41:13;17.10;99.90
17986;DHT22;9118;48.122;11.546;2023-08-31T09:43:41;17.30;99.90
17986;DHT22;9118;48.122;11.546;2023-08-31T09:46:08;17.50;99.90
17986;DHT22;9118;48.122;11.546;2023-08-31T09:48:37;17.60;99.90
17986;DHT22;9118;48.122;11.546;2023-08-31T09:51:05;17.70;99.90
17986;DHT22;9118;48.122;11.546;2023-08-31T09:53:32;17.80;99.90
17986;DHT22;9118;48.122;11.546;2023-08-31T09:56:04;17.80;99.90
17986;DHT22;9118;48.122;11.546;2023-08-31T09:58:33;17.70;99.90
17986;DHT22;9118;48.122;11.546;2023-08-31T10:01:00;17.80;99.90
17986;DHT22;9118;48.122;11.546;2023-08-31T10:03:28;17.80;99.90
17986;DHT22;9118;48.122;11.546;2023-08-31T10:05:55;17.60;99.90
17986;DHT22;9118;48.122;11.546;2023-08-31T10:08:23;17.50;99.90
17986;DHT22;9118;48.122;11.546;2023-08-31T10:10:52;17.40;99.90
17986;DHT22;9118;48.122;11.546;2023-08-31T10:13:20;17.30;99.90
17986;DHT22;9118;48.122;11.546;2023-08-31T10:15:49;17.20;99.90
17986;DHT22;9118;48.122;11.546;2023-08-31T10:18:17;17.20;99.90
17986;DHT22;9118;48.122;11.546;2023-08-31T10:20:45;17.30;99.90
17986;DHT22;9118;48.122;11.546;2023-08-31T10:23:12;17.40;99.90
17986;DHT22;9118;48.122;11.546;2023-08-31T10:26:02;17.50;99.90
17986;DHT22;9118;48.122;11.546;2023-08-31T10:28:39;17.60;99.90
17986;DHT22;9118;48.122;11.546;2023-08-31T10:31:08;17.50;99.90
17986;DHT22;9118;48.122;11.546;2023-08-31T10:33:39;17.60;99.90
17986;DHT22;9118;48.122;11.546;2023-08-31T10:36:12;17.60;99.90
17986;DHT22;9118;48.122;11.546;2023-08-31T10:38:39;17.50;99.90
17986;DHT22;9118;48.122;11.546;2023-08-31T10:41:19;17.50;99.90
17986;DHT22;9118;48.122;11.546;2023-08-31T10:43:48;17.50;99.90
17986;DHT22;9118;48.122;11.546;2023-08-31T10:46:35;17.60;99.90
17986;DHT22;9118;48.122;11.546;2023-08-31T10:49:13;17.60;99.90
17986;DHT22;9118;48.122;11.546;2023-08-31T10:51:42;17.60;99.90
17986;DHT22;9118;48.122;11.546;2023-08-31T10:54:10;17.50;99.90
17986;DHT22;9118;48.122;11.546;2023-08-31T10:57:01;17.40;99.90
17986;DHT22;9118;48.122;11.546;2023-08-31T10:59:42;17.40;99.90
17986;DHT22;9118;48.122;11.546;2023-08-31T11:02:26;17.40;99.90
17986;DHT22;9118;48.122;11.546;2023-08-31T11:04:54;17.40;99.90
17986;DHT22;9118;48.122;11.546;2023-08-31T11:07:24;17.30;99.90
17986;DHT22;9118;48.122;11.546;2023-08-31T11:09:52;17.30;99.90
17986;DHT22;9118;48.122;11.546;2023-08-31T11:12:22;17.40;99.90
17986;DHT22;9118;48.122;11.546;2023-08-31T11:14:49;17.30;99.90
17986;DHT22;9118;48.122;11.546;2023-08-31T11:17:17;17.20;99.90
17986;DHT22;9118;48.122;11.546;2023-08-31T11:19:44;17.10;99.90
17986;DHT22;9118;48.122;11.546;2023-08-31T11:22:11;17.00;99.90
17986;DHT22;9118;48.122;11.546;2023-08-31T11:24:38;16.70;99.90
17986;DHT22;9118;48.122;11.546;2023-08-31T11:27:08;16.50;99.90
17986;DHT22;9118;48.122;11.546;2023-08-31T11:29:37;16.40;99.90
17986;DHT22;9118;48.122;11.546;2023-08-31T11:32:05;16.40;99.90
17986;DHT22;9118;48.122;11.546;2023-08-31T11:34:34;16.30;99.90
17986;DHT22;9118;48.122;11.546;2023-08-31T11:37:02;16.40;99.90
17986;DHT22;9118;48.122;11.546;2023-08-31T11:39:29;16.70;99.90
17986;DHT22;9118;48.122;11.546;2023-08-31T11:41:57;16.70;99.90
17986;DHT22;9118;48.122;11.546;2023-08-31T11:44:27;16.80;99.90
17986;DHT22;9118;48.122;11.546;2023-08-31T11:46:54;17.00;99.90
17986;DHT22;9118;48.122;11.546;2023-08-31T11:49:21;16.90;99.90
17986;DHT22;9118;48.122;11.546;2023-08-31T11:51:50;17.00;99.90
17986;DHT22;9118;48.122;11.546;2023-08-31T11:54:17;17.00;99.90
17986;DHT22;9118;48.122;11.546;2023-08-31T11:56:46;17.00;99.90
17986;DHT22;9118;48.122;11.546;2023-08-31T11:59:16;17.20;99.90
17986;DHT22;9118;48.122;11.546;2023-08-31T12:01:46;17.40;99.90
17986;DHT22;9118;48.122;11.546;2023-08-31T12:04:14;17.30;99.90
17986;DHT22;9118;48.122;11.546;2023-08-31T12:06:41;17.20;99.90
17986;DHT22;9118;48.122;11.546;2023-08-31T12:09:13;17.20;99.90
17986;DHT22;9118;48.122;11.546;2023-08-31T12:11:40;17.00;99.90
17986;DHT22;9118;48.122;11.546;2023-08-31T12:14:19;16.90;99.90
17986;DHT22;9118;48.122;11.546;2023-08-31T12:16:46;16.80;99.90
17986;DHT22;9118;48.122;11.546;2023-08-31T12:19:13;16.60;99.90
17986;DHT22;9118;48.122;11.546;2023-08-31T12:21:42;16.80;99.90
17986;DHT22;9118;48.122;11.546;2023-08-31T12:24:09;17.00;99.90
17986;DHT22;9118;48.122;11.546;2023-08-31T12:26:37;16.90;99.90
17986;DHT22;9118;48.122;11.546;2023-08-31T12:29:04;16.90;99.90
17986;DHT22;9118;48.122;11.546;2023-08-31T12:31:32;17.10;99.90
17986;DHT22;9118;48.122;11.546;2023-08-31T12:33:59;17.00;99.90
17986;DHT22;9118;48.122;11.546;2023-08-31T12:36:30;17.10;99.90
17986;DHT22;9118;48.122;11.546;2023-08-31T12:38:57;17.50;99.90
17986;DHT22;9118;48.122;11.546;2023-08-31T12:41:27;17.80;99.90
17986;DHT22;9118;48.122;11.546;2023-08-31T12:43:55;17.70;99.90
17986;DHT22;9118;48.122;11.546;2023-08-31T12:46:23;18.00;99.90
17986;DHT22;9118;48.122;11.546;2023-08-31T12:48:50;18.10;99.90
17986;DHT22;9118;48.122;11.546;2023-08-31T12:51:18;18.20;99.90
17986;DHT22;9118;48.122;11.546;2023-08-31T12:53:45;18.10;99.90
17986;DHT22;9118;48.122;11.546;2023-08-31T12:56:12;18.00;99.90
17986;DHT22;9118;48.122;11.546;2023-08-31T12:58:40;17.90;99.90
17986;DHT22;9118;48.122;11.546;2023-08-31T13:01:09;18.00;99.90
17986;DHT22;9118;48.122;11.546;2023-08-31T13:03:35;18.20;99.90
17986;DHT22;9118;48.122;11.546;2023-08-31T13:06:03;18.30;99.90
17986;DHT22;9118;48.122;11.546;2023-08-31T13:08:29;18.50;99.90
17986;DHT22;9118;48.122;11.546;2023-08-31T13:10:56;18.60;99.90
17986;DHT22;9118;48.122;11.546;2023-08-31T13:13:23;18.60;99.90
17986;DHT22;9118;48.122;11.546;2023-08-31T13:15:50;18.40;99.90
17986;DHT22;9118;48.122;11.546;2023-08-31T13:18:19;18.50;99.90
17986;DHT22;9118;48.122;11.546;2023-08-31T13:20:50;18.50;99.90
17986;DHT22;9118;48.122;11.546;2023-08-31T13:23:18;18.30;99.90
17986;DHT22;9118;48.122;11.546;2023-08-31T13:25:45;18.20;99.90
17986;DHT22;9118;48.122;11.546;2023-08-31T13:28:12;18.00;99.90
17986;DHT22;9118;48.122;11.546;2023-08-31T13:30:39;18.00;99.90
17986;DHT22;9118;48.122;11.546;2023-08-31T13:33:08;18.00;99.90
17986;DHT22;9118;48.122;11.546;2023-08-31T13:35:36;17.90;99.90
17986;DHT22;9118;48.122;11.546;2023-08-31T13:38:04;17.90;99.90
17986;DHT22;9118;48.122;11.546;2023-08-31T13:40:34;18.00;99.90
17986;DHT22;9118;48.122;11.546;2023-08-31T13:43:02;18.10;99.90
17986;DHT22;9118;48.122;11.546;2023-08-31T13:45:31;18.10;99.90
17986;DHT22;9118;48.122;11.546;2023-08-31T13:47:58;18.20;99.90
17986;DHT22;9118;48.122;11.546;2023-08-31T13:50:25;18.30;99.90
17986;DHT22;9118;48.122;11.546;2023-08-31T13:52:54;18.10;99.90
17986;DHT22;9118;48.122;11.546;2023-08-31T13:55:21;18.30;99.90
17986;DHT22;9118;48.122;11.546;2023-08-31T13:57:49;18.40;99.90
17986;DHT22;9118;48.122;11.546;2023-08-31T14:00:16;18.50;99.90
17986;DHT22;9118;48.122;11.546;2023-08-31T14:02:44;18.80;99.90
17986;DHT22;9118;48.122;11.546;2023-08-31T14:05:11;18.70;99.90
17986;DHT22;9118;48.122;11.546;2023-08-31T14:07:38;18.70;99.90
17986;DHT22;9118;48.122;11.546;2023-08-31T14:10:07;18.80;99.90
17986;DHT22;9118;48.122;11.546;2023-08-31T14:12:34;18.90;99.90
17986;DHT22;9118;48.122;11.546;2023-08-31T14:15:01;19.00;99.90
17986;DHT22;9118;48.122;11.546;2023-08-31T14:17:30;19.10;99.90
17986;DHT22;9118;48.122;11.546;2023-08-31T14:19:59;19.10;99.90
17986;DHT22;9118;48.122;11.546;2023-08-31T14:22:26;18.70;99.90
17986;DHT22;9118;48.122;11.546;2023-08-31T14:24:53;18.60;99.90
17986;DHT22;9118;48.122;11.546;2023-08-31T14:27:24;18.30;99.90
17986;DHT22;9118;48.122;11.546;2023-08-31T14:29:52;18.20;99.90
17986;DHT22;9118;48.122;11.546;2023-08-31T14:32:20;18.20;99.90
17986;DHT22;9118;48.122;11.546;2023-08-31T14:34:48;18.20;99.90
17986;DHT22;9118;48.122;11.546;2023-08-31T14:37:15;18.20;99.90
17986;DHT22;9118;48.122;11.546;2023-08-31T14:39:43;18.20;99.90
17986;DHT22;9118;48.122;11.546;2023-08-31T14:42:09;18.40;99.90
17986;DHT22;9118;48.122;11.546;2023-08-31T14:44:38;18.50;99.90
17986;DHT22;9118;48.122;11.546;2023-08-31T14:47:05;18.60;99.90
17986;DHT22;9118;48.122;11.546;2023-08-31T14:49:32;18.60;99.90
17986;DHT22;9118;48.122;11.546;2023-08-31T14:52:00;18.80;99.90
17986;DHT22;9118;48.122;11.546;2023-08-31T14:54:30;18.80;99.90
17986;DHT22;9118;48.122;11.546;2023-08-31T14:56:58;18.70;99.90
17986;DHT22;9118;48.122;11.546;2023-08-31T14:59:25;18.80;99.90
17986;DHT22;9118;48.122;11.546;2023-08-31T15:01:53;18.90;99.90
17986;DHT22;9118;48.122;11.546;2023-08-31T15:04:20;19.10;99.90
17986;DHT22;9118;48.122;11.546;2023-08-31T15:06:47;19.00;99.90
17986;DHT22;9118;48.122;11.546;2023-08-31T15:09:14;19.00;99.90
17986;DHT22;9118;48.122;11.546;2023-08-31T15:11:41;18.80;99.90
17986;DHT22;9118;48.122;11.546;2023-08-31T15:14:11;18.80;99.90
17986;DHT22;9118;48.122;11.546;2023-08-31T15:16:38;19.00;99.90
17986;DHT22;9118;48.122;11.546;2023-08-31T15:19:07;18.90;99.90
17986;DHT22;9118;48.122;11.546;2023-08-31T15:21:36;18.90;99.90
17986;DHT22;9118;48.122;11.546;2023-08-31T15:24:04;18.80;99.90
17986;DHT22;9118;48.122;11.546;2023-08-31T15:26:31;18.80;99.90
17986;DHT22;9118;48.122;11.546;2023-08-31T15:28:58;19.00;99.90
17986;DHT22;9118;48.122;11.546;2023-08-31T15:31:25;19.20;99.90
17986;DHT22;9118;48.122;11.546;2023-08-31T15:33:52;18.90;99.90
17986;DHT22;9118;48.122;11.546;2023-08-31T15:36:21;18.70;99.90